sensor_id;sensor_type;location;lat;lon;timestamp;pressure;altitude;pressure_sealevel;temperature;humidity
5954;BME280;3002;42.642;24.812;2023-12-28T00:02:15;97513.41;;;9.95;52.00
5954;BME280;3002;42.642;24.812;2023-12-28T00:04:42;97515.84;;;9.97;51.90
5954;BME280;3002;42.642;24.812;2023-12-28T00:07:07;97517.09;;;9.84;52.51
5954;BME280;3002;42.642;24.812;2023-12-28T00:09:33;97519.84;;;9.94;51.86
5954;BME280;3002;42.642;24.812;2023-12-28T00:11:58;97515.63;;;9.71;52.12
5954;BME280;3002;42.642;24.812;2023-12-28T00:14:24;97512.69;;;9.68;51.18
5954;BME280;3002;42.642;24.812;2023-12-28T00:16:49;97519.38;;;9.70;50.48
5954;BME280;3002;42.642;24.812;2023-12-28T00:19:15;97524.63;;;9.87;50.56
5954;BME280;3002;42.642;24.812;2023-12-28T00:21:40;97528.47;;;10.01;50.35
5954;BME280;3002;42.642;24.812;2023-12-28T00:24:06;97526.94;;;10.10;49.07
5954;BME280;3002;42.642;24.812;2023-12-28T00:26:31;97533.91;;;10.11;48.68
5954;BME280;3002;42.642;24.812;2023-12-28T00:28:57;97531.75;;;10.13;48.04
5954;BME280;3002;42.642;24.812;2023-12-28T00:31:22;97534.94;;;10.05;47.95
5954;BME280;3002;42.642;24.812;2023-12-28T00:33:48;97538.47;;;10.11;47.89
5954;BME280;3002;42.642;24.812;2023-12-28T00:36:15;97535.59;;;9.85;48.93
5954;BME280;3002;42.642;24.812;2023-12-28T00:38:41;97541.31;;;9.99;47.92
5954;BME280;3002;42.642;24.812;2023-12-28T00:41:07;97545.16;;;10.08;48.20
5954;BME280;3002;42.642;24.812;2023-12-28T00:43:32;97548.50;;;9.93;48.74
5954;BME280;3002;42.642;24.812;2023-12-28T00:45:57;97544.44;;;9.86;49.46
5954;BME280;3002;42.642;24.812;2023-12-28T00:48:23;97549.66;;;9.71;50.40
5954;BME280;3002;42.642;24.812;2023-12-28T00:50:48;97554.69;;;9.62;50.57
5954;BME280;3002;42.642;24.812;2023-12-28T00:53:14;97548.25;;;9.63;49.75
5954;BME280;3002;42.642;24.812;2023-12-28T00:55:40;97551.69;;;9.58;49.96
5954;BME280;3002;42.642;24.812;2023-12-28T00:58:05;97560.38;;;9.44;50.54
5954;BME280;3002;42.642;24.812;2023-12-28T01:00:31;97559.13;;;9.51;50.02
5954;BME280;3002;42.642;24.812;2023-12-28T01:02:56;97553.00;;;9.29;51.11
5954;BME280;3002;42.642;24.812;2023-12-28T01:05:21;97559.84;;;9.42;50.67
5954;BME280;3002;42.642;24.812;2023-12-28T01:07:47;97570.84;;;9.45;51.16
5954;BME280;3002;42.642;24.812;2023-12-28T01:10:12;97570.09;;;9.50;50.77
5954;BME280;3002;42.642;24.812;2023-12-28T01:12:38;97578.47;;;9.09;51.84
5954;BME280;3002;42.642;24.812;2023-12-28T01:15:04;97571.25;;;9.10;51.88
5954;BME280;3002;42.642;24.812;2023-12-28T01:17:29;97580.59;;;9.07;51.87
5954;BME280;3002;42.642;24.812;2023-12-28T01:19:55;97578.50;;;8.88;52.12
5954;BME280;3002;42.642;24.812;2023-12-28T01:22:21;97564.19;;;8.77;52.19
5954;BME280;3002;42.642;24.812;2023-12-28T01:24:47;97558.00;;;8.98;52.37
5954;BME280;3002;42.642;24.812;2023-12-28T01:27:14;97560.50;;;8.83;53.14
5954;BME280;3002;42.642;24.812;2023-12-28T01:29:40;97562.50;;;8.71;53.73
5954;BME280;3002;42.642;24.812;2023-12-28T01:32:05;97553.28;;;8.62;54.27
5954;BME280;3002;42.642;24.812;2023-12-28T01:34:30;97550.34;;;8.63;53.94
5954;BME280;3002;42.642;24.812;2023-12-28T01:36:56;97557.03;;;8.82;53.04
5954;BME280;3002;42.642;24.812;2023-12-28T01:39:22;97544.69;;;8.81;52.79
5954;BME280;3002;42.642;24.812;2023-12-28T01:41:47;97541.53;;;8.84;52.52
5954;BME280;3002;42.642;24.812;2023-12-28T01:44:13;97553.59;;;9.09;52.40
5954;BME280;3002;42.642;24.812;2023-12-28T01:46:40;97550.75;;;8.94;52.34
5954;BME280;3002;42.642;24.812;2023-12-28T01:49:06;97547.31;;;8.98;51.17
5954;BME280;3002;42.642;24.812;2023-12-28T01:51:32;97549.13;;;8.93;50.89
5954;BME280;3002;42.642;24.812;2023-12-28T01:53:58;97548.56;;;8.91;50.77
5954;BME280;3002;42.642;24.812;2023-12-28T01:56:24;97544.94;;;9.02;51.43
5954;BME280;3002;42.642;24.812;2023-12-28T01:58:50;97546.22;;;8.94;52.42
5954;BME280;3002;42.642;24.812;2023-12-28T02:01:17;97547.44;;;8.87;52.23
5954;BME280;3002;42.642;24.812;2023-12-28T02:03:43;97550.41;;;8.68;53.11
5954;BME280;3002;42.642;24.812;2023-12-28T02:06:10;97552.97;;;8.80;53.09
5954;BME280;3002;42.642;24.812;2023-12-28T02:08:35;97548.13;;;8.77;53.24
5954;BME280;3002;42.642;24.812;2023-12-28T02:11:02;97558.84;;;8.77;52.62
5954;BME280;3002;42.642;24.812;2023-12-28T02:13:27;97559.63;;;8.55;53.05
5954;BME280;3002;42.642;24.812;2023-12-28T02:16:09;97558.53;;;8.95;52.49
5954;BME280;3002;42.642;24.812;2023-12-28T02:18:43;97560.44;;;8.78;52.63
5954;BME280;3002;42.642;24.812;2023-12-28T02:21:12;97556.97;;;8.77;51.96
5954;BME280;3002;42.642;24.812;2023-12-28T02:23:38;97564.94;;;8.94;51.96
5954;BME280;3002;42.642;24.812;2023-12-28T02:26:03;97558.25;;;8.97;52.13
5954;BME280;3002;42.642;24.812;2023-12-28T02:28:29;97555.41;;;8.60;52.31
5954;BME280;3002;42.642;24.812;2023-12-28T02:30:54;97560.38;;;8.34;53.99
5954;BME280;3002;42.642;24.812;2023-12-28T02:33:41;97554.97;;;8.68;52.81
5954;BME280;3002;42.642;24.812;2023-12-28T02:36:10;97555.72;;;8.85;52.04
5954;BME280;3002;42.642;24.812;2023-12-28T02:38:37;97557.25;;;8.81;52.33
5954;BME280;3002;42.642;24.812;2023-12-28T02:41:04;97548.88;;;8.72;52.41
5954;BME280;3002;42.642;24.812;2023-12-28T02:43:30;97563.66;;;8.80;52.21
5954;BME280;3002;42.642;24.812;2023-12-28T02:45:55;97567.63;;;8.55;52.67
5954;BME280;3002;42.642;24.812;2023-12-28T02:48:21;97558.44;;;8.68;51.34
5954;BME280;3002;42.642;24.812;2023-12-28T02:50:46;97559.00;;;8.48;51.20
5954;BME280;3002;42.642;24.812;2023-12-28T02:53:12;97558.03;;;8.76;51.45
5954;BME280;3002;42.642;24.812;2023-12-28T02:55:38;97560.13;;;8.52;50.60
5954;BME280;3002;42.642;24.812;2023-12-28T02:58:03;97567.56;;;8.50;50.93
5954;BME280;3002;42.642;24.812;2023-12-28T03:00:29;97565.41;;;8.47;52.25
5954;BME280;3002;42.642;24.812;2023-12-28T03:02:54;97569.13;;;8.46;51.67
5954;BME280;3002;42.642;24.812;2023-12-28T03:05:20;97574.28;;;8.53;51.54
5954;BME280;3002;42.642;24.812;2023-12-28T03:07:46;97572.09;;;8.50;51.14
5954;BME280;3002;42.642;24.812;2023-12-28T03:10:11;97571.44;;;8.60;51.43
5954;BME280;3002;42.642;24.812;2023-12-28T03:12:37;97569.16;;;8.51;52.16
5954;BME280;3002;42.642;24.812;2023-12-28T03:15:04;97569.75;;;8.53;52.46
5954;BME280;3002;42.642;24.812;2023-12-28T03:17:30;97563.44;;;8.09;52.93
5954;BME280;3002;42.642;24.812;2023-12-28T03:19:56;97567.56;;;8.33;52.60
5954;BME280;3002;42.642;24.812;2023-12-28T03:22:22;97558.34;;;8.24;53.81
5954;BME280;3002;42.642;24.812;2023-12-28T03:24:47;97568.66;;;8.16;54.94
5954;BME280;3002;42.642;24.812;2023-12-28T03:27:14;97572.69;;;8.35;54.59
5954;BME280;3002;42.642;24.812;2023-12-28T03:29:41;97564.50;;;7.91;55.58
5954;BME280;3002;42.642;24.812;2023-12-28T03:32:07;97570.09;;;7.90;55.09
5954;BME280;3002;42.642;24.812;2023-12-28T03:34:32;97564.84;;;8.12;54.22
5954;BME280;3002;42.642;24.812;2023-12-28T03:36:59;97558.69;;;8.11;53.89
5954;BME280;3002;42.642;24.812;2023-12-28T03:39:24;97565.41;;;8.14;54.52
5954;BME280;3002;42.642;24.812;2023-12-28T03:41:50;97559.09;;;8.37;54.04
5954;BME280;3002;42.642;24.812;2023-12-28T03:44:18;97555.44;;;8.09;54.61
5954;BME280;3002;42.642;24.812;2023-12-28T03:46:43;97569.69;;;8.15;54.56
5954;BME280;3002;42.642;24.812;2023-12-28T03:49:09;97559.59;;;8.17;54.63
5954;BME280;3002;42.642;24.812;2023-12-28T03:51:34;97570.66;;;8.42;53.71
5954;BME280;3002;42.642;24.812;2023-12-28T03:53:59;97580.69;;;8.35;53.91
5954;BME280;3002;42.642;24.812;2023-12-28T03:56:26;97567.19;;;8.42;53.66
5954;BME280;3002;42.642;24.812;2023-12-28T03:58:52;97569.84;;;8.08;54.78
5954;BME280;3002;42.642;24.812;2023-12-28T04:01:19;97575.53;;;8.12;53.84
5954;BME280;3002;42.642;24.812;2023-12-28T04:03:45;97577.38;;;8.28;53.56
5954;BME280;3002;42.642;24.812;2023-12-28T04:06:11;97580.78;;;8.23;52.60
5954;BME280;3002;42.642;24.812;2023-12-28T04:08:38;97584.81;;;8.26;53.51
5954;BME280;3002;42.642;24.812;2023-12-28T04:11:04;97588.28;;;8.26;53.49
5954;BME280;3002;42.642;24.812;2023-12-28T04:13:29;97583.94;;;8.20;53.02
5954;BME280;3002;42.642;24.812;2023-12-28T04:15:55;97587.41;;;8.21;53.31
5954;BME280;3002;42.642;24.812;2023-12-28T04:18:20;97580.16;;;7.99;53.72
5954;BME280;3002;42.642;24.812;2023-12-28T04:20:46;97586.59;;;8.03;53.35
5954;BME280;3002;42.642;24.812;2023-12-28T04:23:11;97591.13;;;8.20;53.25
5954;BME280;3002;42.642;24.812;2023-12-28T04:25:37;97582.66;;;8.23;53.21
5954;BME280;3002;42.642;24.812;2023-12-28T04:28:02;97580.69;;;8.35;53.08
5954;BME280;3002;42.642;24.812;2023-12-28T04:30:27;97591.63;;;8.50;52.62
5954;BME280;3002;42.642;24.812;2023-12-28T04:32:53;97594.16;;;8.23;52.60
5954;BME280;3002;42.642;24.812;2023-12-28T04:35:19;97591.47;;;8.07;53.47
5954;BME280;3002;42.642;24.812;2023-12-28T04:37:44;97600.03;;;8.09;53.80
5954;BME280;3002;42.642;24.812;2023-12-28T04:40:10;97596.09;;;8.11;53.43
5954;BME280;3002;42.642;24.812;2023-12-28T04:42:36;97589.09;;;7.76;54.32
5954;BME280;3002;42.642;24.812;2023-12-28T04:45:01;97594.78;;;7.97;54.48
5954;BME280;3002;42.642;24.812;2023-12-28T04:47:27;97591.94;;;8.20;54.15
5954;BME280;3002;42.642;24.812;2023-12-28T04:49:52;97586.84;;;8.19;54.32
5954;BME280;3002;42.642;24.812;2023-12-28T04:52:17;97574.88;;;8.04;54.66
5954;BME280;3002;42.642;24.812;2023-12-28T04:54:43;97576.81;;;8.09;54.33
5954;BME280;3002;42.642;24.812;2023-12-28T04:57:08;97588.78;;;7.73;54.16
5954;BME280;3002;42.642;24.812;2023-12-28T04:59:40;97581.13;;;8.10;54.37
5954;BME280;3002;42.642;24.812;2023-12-28T05:02:06;97590.25;;;7.81;55.76
5954;BME280;3002;42.642;24.812;2023-12-28T05:04:31;97593.88;;;7.91;55.32
5954;BME280;3002;42.642;24.812;2023-12-28T05:06:57;97582.31;;;8.02;55.16
5954;BME280;3002;42.642;24.812;2023-12-28T05:09:22;97585.47;;;7.83;55.52
5954;BME280;3002;42.642;24.812;2023-12-28T05:11:48;97583.94;;;8.03;54.67
5954;BME280;3002;42.642;24.812;2023-12-28T05:14:13;97587.34;;;7.82;55.30
5954;BME280;3002;42.642;24.812;2023-12-28T05:16:39;97582.09;;;8.04;54.23
5954;BME280;3002;42.642;24.812;2023-12-28T05:19:04;97581.03;;;7.88;53.61
5954;BME280;3002;42.642;24.812;2023-12-28T05:21:30;97595.03;;;7.95;53.73
5954;BME280;3002;42.642;24.812;2023-12-28T05:23:55;97596.72;;;7.68;54.56
5954;BME280;3002;42.642;24.812;2023-12-28T05:26:20;97597.47;;;7.80;54.63
5954;BME280;3002;42.642;24.812;2023-12-28T05:28:46;97594.94;;;7.90;54.08
5954;BME280;3002;42.642;24.812;2023-12-28T05:31:11;97591.38;;;7.85;53.67
5954;BME280;3002;42.642;24.812;2023-12-28T05:33:38;97587.34;;;7.82;53.92
5954;BME280;3002;42.642;24.812;2023-12-28T05:36:04;97594.22;;;7.95;53.60
5954;BME280;3002;42.642;24.812;2023-12-28T05:38:30;97587.22;;;7.60;54.49
5954;BME280;3002;42.642;24.812;2023-12-28T05:40:55;97581.88;;;7.60;54.73
5954;BME280;3002;42.642;24.812;2023-12-28T05:43:21;97588.47;;;7.86;54.35
5954;BME280;3002;42.642;24.812;2023-12-28T05:45:47;97593.00;;;7.86;54.30
5954;BME280;3002;42.642;24.812;2023-12-28T05:48:12;97589.25;;;7.70;55.13
5954;BME280;3002;42.642;24.812;2023-12-28T05:50:37;97586.69;;;7.75;54.97
5954;BME280;3002;42.642;24.812;2023-12-28T05:53:03;97585.72;;;7.81;55.23
5954;BME280;3002;42.642;24.812;2023-12-28T05:55:28;97578.91;;;7.73;55.21
5954;BME280;3002;42.642;24.812;2023-12-28T05:57:54;97587.59;;;7.81;54.74
5954;BME280;3002;42.642;24.812;2023-12-28T06:00:19;97586.94;;;7.90;54.37
5954;BME280;3002;42.642;24.812;2023-12-28T06:02:45;97587.81;;;7.96;54.39
5954;BME280;3002;42.642;24.812;2023-12-28T06:05:12;97592.34;;;7.95;54.03
5954;BME280;3002;42.642;24.812;2023-12-28T06:07:37;97599.75;;;8.05;53.98
5954;BME280;3002;42.642;24.812;2023-12-28T06:10:03;97596.72;;;8.01;54.41
5954;BME280;3002;42.642;24.812;2023-12-28T06:12:29;97602.72;;;7.92;54.67
5954;BME280;3002;42.642;24.812;2023-12-28T06:14:55;97608.53;;;7.89;55.10
5954;BME280;3002;42.642;24.812;2023-12-28T06:17:20;97609.03;;;7.86;55.00
5954;BME280;3002;42.642;24.812;2023-12-28T06:19:45;97605.53;;;8.02;54.96
5954;BME280;3002;42.642;24.812;2023-12-28T06:22:11;97613.19;;;8.10;54.66
5954;BME280;3002;42.642;24.812;2023-12-28T06:24:39;97616.75;;;8.16;55.08
5954;BME280;3002;42.642;24.812;2023-12-28T06:27:05;97618.28;;;8.12;55.44
5954;BME280;3002;42.642;24.812;2023-12-28T06:29:31;97616.09;;;10.28;51.73
5954;BME280;3002;42.642;24.812;2023-12-28T06:31:57;97611.28;;;13.28;45.02
5954;BME280;3002;42.642;24.812;2023-12-28T06:34:22;97614.09;;;15.66;40.62
5954;BME280;3002;42.642;24.812;2023-12-28T06:36:47;97623.06;;;16.50;38.25
5954;BME280;3002;42.642;24.812;2023-12-28T06:39:13;97615.34;;;17.31;37.01
5954;BME280;3002;42.642;24.812;2023-12-28T06:41:38;97617.94;;;17.78;36.02
5954;BME280;3002;42.642;24.812;2023-12-28T06:44:04;97614.88;;;18.83;34.55
5954;BME280;3002;42.642;24.812;2023-12-28T06:46:29;97613.91;;;19.18;33.75
5954;BME280;3002;42.642;24.812;2023-12-28T06:48:56;97618.47;;;19.01;33.81
5954;BME280;3002;42.642;24.812;2023-12-28T06:51:25;97609.03;;;19.46;33.09
5954;BME280;3002;42.642;24.812;2023-12-28T06:53:51;97609.44;;;19.71;33.04
5954;BME280;3002;42.642;24.812;2023-12-28T06:56:17;97608.50;;;19.36;33.62
5954;BME280;3002;42.642;24.812;2023-12-28T06:58:42;97607.06;;;20.21;32.72
5954;BME280;3002;42.642;24.812;2023-12-28T07:01:08;97605.59;;;20.41;33.00
5954;BME280;3002;42.642;24.812;2023-12-28T07:03:33;97602.84;;;21.14;31.93
5954;BME280;3002;42.642;24.812;2023-12-28T07:05:59;97593.53;;;21.15;31.49
5954;BME280;3002;42.642;24.812;2023-12-28T07:08:25;97597.44;;;22.06;30.48
5954;BME280;3002;42.642;24.812;2023-12-28T07:10:50;97600.06;;;22.24;30.65
5954;BME280;3002;42.642;24.812;2023-12-28T07:13:16;97602.25;;;22.51;29.80
5954;BME280;3002;42.642;24.812;2023-12-28T07:15:41;97598.19;;;22.69;29.47
5954;BME280;3002;42.642;24.812;2023-12-28T07:18:07;97596.56;;;23.14;28.53
5954;BME280;3002;42.642;24.812;2023-12-28T07:20:32;97597.06;;;24.05;28.76
5954;BME280;3002;42.642;24.812;2023-12-28T07:22:57;97603.25;;;24.30;27.30
5954;BME280;3002;42.642;24.812;2023-12-28T07:25:23;97598.84;;;23.48;27.34
5954;BME280;3002;42.642;24.812;2023-12-28T07:27:48;97598.91;;;21.83;28.93
5954;BME280;3002;42.642;24.812;2023-12-28T07:30:14;97601.56;;;21.71;29.61
5954;BME280;3002;42.642;24.812;2023-12-28T07:32:42;97600.19;;;22.06;28.80
5954;BME280;3002;42.642;24.812;2023-12-28T07:35:07;97599.41;;;22.27;28.75
5954;BME280;3002;42.642;24.812;2023-12-28T07:37:35;97606.50;;;21.56;29.32
5954;BME280;3002;42.642;24.812;2023-12-28T07:40:01;97611.09;;;19.32;32.26
5954;BME280;3002;42.642;24.812;2023-12-28T07:42:28;97617.34;;;20.97;32.45
5954;BME280;3002;42.642;24.812;2023-12-28T07:44:54;97604.56;;;21.57;32.08
5954;BME280;3002;42.642;24.812;2023-12-28T07:47:19;97619.34;;;19.58;34.45
5954;BME280;3002;42.642;24.812;2023-12-28T07:49:45;97615.84;;;17.47;37.42
5954;BME280;3002;42.642;24.812;2023-12-28T07:52:10;97617.66;;;16.50;39.31
5954;BME280;3002;42.642;24.812;2023-12-28T07:54:36;97627.38;;;15.38;42.17
5954;BME280;3002;42.642;24.812;2023-12-28T07:57:01;97620.97;;;19.19;34.71
5954;BME280;3002;42.642;24.812;2023-12-28T07:59:27;97613.91;;;20.45;33.99
5954;BME280;3002;42.642;24.812;2023-12-28T08:01:52;97616.88;;;23.13;30.02
5954;BME280;3002;42.642;24.812;2023-12-28T08:04:18;97628.66;;;24.15;28.96
5954;BME280;3002;42.642;24.812;2023-12-28T08:06:43;97625.09;;;23.74;29.07
5954;BME280;3002;42.642;24.812;2023-12-28T08:09:08;97619.00;;;24.89;28.17
5954;BME280;3002;42.642;24.812;2023-12-28T08:11:34;97620.16;;;20.63;31.62
5954;BME280;3002;42.642;24.812;2023-12-28T08:14:00;97622.78;;;21.44;31.06
5954;BME280;3002;42.642;24.812;2023-12-28T08:16:25;97621.53;;;22.67;28.89
5954;BME280;3002;42.642;24.812;2023-12-28T08:18:51;97626.56;;;23.59;28.18
5954;BME280;3002;42.642;24.812;2023-12-28T08:21:18;97623.41;;;24.78;27.18
5954;BME280;3002;42.642;24.812;2023-12-28T08:23:44;97618.13;;;25.48;26.31
5954;BME280;3002;42.642;24.812;2023-12-28T08:26:09;97622.63;;;26.07;26.04
5954;BME280;3002;42.642;24.812;2023-12-28T08:28:36;97626.34;;;26.34;25.51
5954;BME280;3002;42.642;24.812;2023-12-28T08:31:01;97631.69;;;26.27;25.25
5954;BME280;3002;42.642;24.812;2023-12-28T08:33:27;97623.94;;;25.78;26.31
5954;BME280;3002;42.642;24.812;2023-12-28T08:35:52;97621.19;;;24.99;26.50
5954;BME280;3002;42.642;24.812;2023-12-28T08:38:17;97613.97;;;26.86;25.14
5954;BME280;3002;42.642;24.812;2023-12-28T08:40:43;97616.94;;;26.16;23.21
5954;BME280;3002;42.642;24.812;2023-12-28T08:43:10;97610.91;;;26.68;24.17
5954;BME280;3002;42.642;24.812;2023-12-28T08:45:36;97612.84;;;26.45;24.10
5954;BME280;3002;42.642;24.812;2023-12-28T08:48:02;97609.06;;;26.53;23.79
5954;BME280;3002;42.642;24.812;2023-12-28T08:50:28;97619.25;;;25.63;24.06
5954;BME280;3002;42.642;24.812;2023-12-28T08:52:53;97605.97;;;25.65;24.18
5954;BME280;3002;42.642;24.812;2023-12-28T08:55:18;97607.97;;;25.84;25.07
5954;BME280;3002;42.642;24.812;2023-12-28T08:57:44;97608.97;;;25.76;24.17
5954;BME280;3002;42.642;24.812;2023-12-28T09:00:10;97598.09;;;26.57;23.26
5954;BME280;3002;42.642;24.812;2023-12-28T09:02:36;97598.63;;;26.04;23.30
5954;BME280;3002;42.642;24.812;2023-12-28T09:05:02;97600.88;;;25.83;25.45
5954;BME280;3002;42.642;24.812;2023-12-28T09:07:28;97599.25;;;26.17;23.58
5954;BME280;3002;42.642;24.812;2023-12-28T09:09:53;97586.41;;;26.21;23.68
5954;BME280;3002;42.642;24.812;2023-12-28T09:12:19;97574.50;;;26.36;23.67
5954;BME280;3002;42.642;24.812;2023-12-28T09:14:44;97582.50;;;27.56;21.87
5954;BME280;3002;42.642;24.812;2023-12-28T09:17:11;97573.00;;;26.58;24.44
5954;BME280;3002;42.642;24.812;2023-12-28T09:19:36;97566.69;;;27.04;24.08
5954;BME280;3002;42.642;24.812;2023-12-28T09:22:03;97561.81;;;27.16;22.43
5954;BME280;3002;42.642;24.812;2023-12-28T09:24:29;97561.50;;;27.21;22.06
5954;BME280;3002;42.642;24.812;2023-12-28T09:26:54;97547.09;;;26.01;23.67
5954;BME280;3002;42.642;24.812;2023-12-28T09:29:20;97546.63;;;26.80;21.96
5954;BME280;3002;42.642;24.812;2023-12-28T09:31:45;97539.16;;;26.38;23.51
5954;BME280;3002;42.642;24.812;2023-12-28T09:34:11;97542.03;;;25.84;23.05
5954;BME280;3002;42.642;24.812;2023-12-28T09:36:36;97547.19;;;25.34;23.48
5954;BME280;3002;42.642;24.812;2023-12-28T09:39:02;97541.66;;;24.12;24.62
5954;BME280;3002;42.642;24.812;2023-12-28T09:41:30;97535.03;;;25.71;23.97
5954;BME280;3002;42.642;24.812;2023-12-28T09:44:08;97523.88;;;25.79;24.53
5954;BME280;3002;42.642;24.812;2023-12-28T09:46:34;97514.66;;;25.72;24.86
5954;BME280;3002;42.642;24.812;2023-12-28T09:49:02;97511.97;;;25.91;24.43
5954;BME280;3002;42.642;24.812;2023-12-28T09:51:27;97502.41;;;26.04;24.23
5954;BME280;3002;42.642;24.812;2023-12-28T09:53:55;97504.50;;;25.92;24.06
5954;BME280;3002;42.642;24.812;2023-12-28T09:56:23;97508.97;;;26.00;24.84
5954;BME280;3002;42.642;24.812;2023-12-28T09:58:50;97494.19;;;25.69;24.43
5954;BME280;3002;42.642;24.812;2023-12-28T10:01:17;97489.25;;;26.36;24.51
5954;BME280;3002;42.642;24.812;2023-12-28T10:03:43;97495.63;;;26.86;24.60
5954;BME280;3002;42.642;24.812;2023-12-28T10:06:09;97494.25;;;27.49;23.69
5954;BME280;3002;42.642;24.812;2023-12-28T10:08:34;97498.25;;;24.58;26.43
5954;BME280;3002;42.642;24.812;2023-12-28T10:11:02;97480.28;;;25.43;26.09
5954;BME280;3002;42.642;24.812;2023-12-28T10:13:28;97492.56;;;26.91;25.13
5954;BME280;3002;42.642;24.812;2023-12-28T10:15:57;97483.00;;;27.91;24.15
5954;BME280;3002;42.642;24.812;2023-12-28T10:18:23;97477.81;;;28.20;23.89
5954;BME280;3002;42.642;24.812;2023-12-28T10:20:52;97478.97;;;27.02;24.16
5954;BME280;3002;42.642;24.812;2023-12-28T10:23:21;97470.19;;;26.93;24.43
5954;BME280;3002;42.642;24.812;2023-12-28T10:25:47;97457.69;;;26.07;25.08
5954;BME280;3002;42.642;24.812;2023-12-28T10:28:15;97455.25;;;26.94;25.26
5954;BME280;3002;42.642;24.812;2023-12-28T10:30:44;97453.63;;;27.16;24.50
5954;BME280;3002;42.642;24.812;2023-12-28T10:33:09;97442.59;;;28.47;23.52
5954;BME280;3002;42.642;24.812;2023-12-28T10:35:35;97439.28;;;27.93;23.16
5954;BME280;3002;42.642;24.812;2023-12-28T10:38:01;97427.28;;;28.49;23.28
5954;BME280;3002;42.642;24.812;2023-12-28T10:40:28;97419.13;;;27.86;23.99
5954;BME280;3002;42.642;24.812;2023-12-28T10:43:02;97414.53;;;28.89;22.30
5954;BME280;3002;42.642;24.812;2023-12-28T10:45:32;97411.25;;;28.25;22.89
5954;BME280;3002;42.642;24.812;2023-12-28T10:50:46;97405.78;;;28.73;22.66
5954;BME280;3002;42.642;24.812;2023-12-28T10:53:20;97399.53;;;28.35;22.64
5954;BME280;3002;42.642;24.812;2023-12-28T10:58:51;97410.34;;;27.77;23.22
5954;BME280;3002;42.642;24.812;2023-12-28T11:01:38;97406.25;;;27.97;23.26
5954;BME280;3002;42.642;24.812;2023-12-28T11:04:24;97404.28;;;28.90;22.24
5954;BME280;3002;42.642;24.812;2023-12-28T11:06:51;97394.88;;;28.43;22.51
5954;BME280;3002;42.642;24.812;2023-12-28T11:09:18;97398.00;;;28.41;23.13
5954;BME280;3002;42.642;24.812;2023-12-28T11:11:46;97385.25;;;29.36;22.46
5954;BME280;3002;42.642;24.812;2023-12-28T11:14:12;97390.63;;;29.04;22.30
5954;BME280;3002;42.642;24.812;2023-12-28T11:16:38;97395.22;;;29.62;21.68
5954;BME280;3002;42.642;24.812;2023-12-28T11:19:06;97402.38;;;29.63;22.34
5954;BME280;3002;42.642;24.812;2023-12-28T11:21:33;97383.06;;;28.94;22.18
5954;BME280;3002;42.642;24.812;2023-12-28T11:23:58;97385.56;;;28.62;22.98
5954;BME280;3002;42.642;24.812;2023-12-28T11:26:24;97369.53;;;28.82;23.23
5954;BME280;3002;42.642;24.812;2023-12-28T11:28:50;97367.34;;;29.05;22.39
5954;BME280;3002;42.642;24.812;2023-12-28T11:31:19;97364.59;;;30.24;21.36
5954;BME280;3002;42.642;24.812;2023-12-28T11:33:50;97369.78;;;29.24;24.98
5954;BME280;3002;42.642;24.812;2023-12-28T11:36:31;97355.88;;;28.44;22.72
5954;BME280;3002;42.642;24.812;2023-12-28T11:39:01;97351.41;;;28.80;23.08
5954;BME280;3002;42.642;24.812;2023-12-28T11:41:27;97352.78;;;28.53;24.27
5954;BME280;3002;42.642;24.812;2023-12-28T11:43:55;97350.59;;;28.80;23.33
5954;BME280;3002;42.642;24.812;2023-12-28T11:46:22;97344.81;;;30.11;21.59
5954;BME280;3002;42.642;24.812;2023-12-28T11:48:47;97343.19;;;29.96;21.64
5954;BME280;3002;42.642;24.812;2023-12-28T11:51:13;97343.59;;;30.62;21.14
5954;BME280;3002;42.642;24.812;2023-12-28T11:53:39;97336.44;;;29.79;21.03
5954;BME280;3002;42.642;24.812;2023-12-28T11:56:06;97328.28;;;29.06;21.16
5954;BME280;3002;42.642;24.812;2023-12-28T11:58:35;97320.22;;;29.60;21.45
5954;BME280;3002;42.642;24.812;2023-12-28T12:01:01;97321.47;;;30.59;22.34
5954;BME280;3002;42.642;24.812;2023-12-28T12:03:27;97312.75;;;30.78;20.77
5954;BME280;3002;42.642;24.812;2023-12-28T12:05:55;97316.31;;;30.04;22.00
5954;BME280;3002;42.642;24.812;2023-12-28T12:08:22;97328.13;;;30.97;19.50
5954;BME280;3002;42.642;24.812;2023-12-28T12:10:48;97321.47;;;30.45;19.48
5954;BME280;3002;42.642;24.812;2023-12-28T12:13:14;97321.06;;;30.57;20.28
5954;BME280;3002;42.642;24.812;2023-12-28T12:15:39;97310.00;;;30.00;20.28
5954;BME280;3002;42.642;24.812;2023-12-28T12:18:05;97297.31;;;30.63;20.02
5954;BME280;3002;42.642;24.812;2023-12-28T12:20:31;97298.91;;;30.75;22.34
5954;BME280;3002;42.642;24.812;2023-12-28T12:22:58;97304.69;;;31.27;19.33
5954;BME280;3002;42.642;24.812;2023-12-28T12:25:24;97304.00;;;31.01;20.00
5954;BME280;3002;42.642;24.812;2023-12-28T12:27:49;97292.59;;;29.85;21.27
5954;BME280;3002;42.642;24.812;2023-12-28T12:30:15;97298.91;;;29.93;21.16
5954;BME280;3002;42.642;24.812;2023-12-28T12:32:41;97288.28;;;30.48;22.27
5954;BME280;3002;42.642;24.812;2023-12-28T12:35:09;97285.91;;;30.07;20.81
5954;BME280;3002;42.642;24.812;2023-12-28T12:37:35;97285.13;;;30.00;21.03
5954;BME280;3002;42.642;24.812;2023-12-28T12:40:03;97287.13;;;30.24;20.82
5954;BME280;3002;42.642;24.812;2023-12-28T12:42:29;97277.06;;;29.27;21.20
5954;BME280;3002;42.642;24.812;2023-12-28T12:44:54;97287.50;;;30.19;21.21
5954;BME280;3002;42.642;24.812;2023-12-28T12:47:22;97287.00;;;30.88;21.21
5954;BME280;3002;42.642;24.812;2023-12-28T12:49:48;97288.16;;;31.82;20.21
5954;BME280;3002;42.642;24.812;2023-12-28T12:52:14;97283.59;;;31.47;19.32
5954;BME280;3002;42.642;24.812;2023-12-28T12:54:39;97284.53;;;31.12;19.73
5954;BME280;3002;42.642;24.812;2023-12-28T12:57:05;97292.22;;;31.60;20.08
5954;BME280;3002;42.642;24.812;2023-12-28T12:59:30;97298.09;;;30.81;20.44
5954;BME280;3002;42.642;24.812;2023-12-28T13:01:56;97289.50;;;31.53;19.45
5954;BME280;3002;42.642;24.812;2023-12-28T13:04:21;97288.53;;;31.07;19.11
5954;BME280;3002;42.642;24.812;2023-12-28T13:06:47;97293.25;;;29.28;19.94
5954;BME280;3002;42.642;24.812;2023-12-28T13:09:13;97298.16;;;30.38;18.86
5954;BME280;3002;42.642;24.812;2023-12-28T13:11:40;97289.81;;;30.63;18.87
5954;BME280;3002;42.642;24.812;2023-12-28T13:14:05;97295.38;;;30.10;19.04
5954;BME280;3002;42.642;24.812;2023-12-28T13:16:31;97299.72;;;30.47;19.64